MATARÓ (Maresme)





Hora UTC 03:00
Temperatura 17.2 ºC
Humitat 93.8 %
Pressió 1012.2 hPa
Pluja 0.0 mm
Velocitat vent 0.3 km/h
Direcció vent SSE
Radiació solar 0.1 W/m²

Dades diàries 2024-05-30



Hora UTC (hivern +1h; estiu +2h)
Temperatura (ºC) Humitat (%) Pressió (hPa) Velocitat vent (km/h) Precipitació (mm) Radiació solar (W/m²)
Hora UTC Aire Humitat Pressió Vel. Dir. Vel. Max Dir. Intent. màx 5 min. Rad. Sol.
00:05 18.0 93.9 1013.7 6.4 WNW 6.4 WNW 0.0 0.1
00:10 18.0 93.2 1013.7 5.3 W 7.8 WNW 0.0 0.1
00:15 18.1 92.5 1013.7 6.2 W 9.5 WNW 0.0 0.1
00:20 18.2 91.8 1013.6 7.1 NW 11.3 NW 0.0 0.1
00:25 18.2 91.4 1013.5 7.1 NNW 12.0 NNW 0.0 0.1
00:30 18.3 90.7 1013.5 6.0 N 10.9 N 0.0 0.1
00:35 18.3 90.3 1013.4 6.3 N 10.2 NNW 0.0 0.1
00:40 18.3 89.9 1013.3 6.7 NNW 9.5 NNW 0.0 0.1
00:45 18.3 89.2 1013.3 5.3 WNW 9.5 NNW 0.0 0.1
00:50 18.3 89.4 1013.4 2.8 SSW 6.4 SW 0.0 0.1
00:55 18.2 89.4 1013.4 1.4 SE 3.2 SE 0.0 0.1
01:00 18.0 89.8 1013.3 0.4 E 1.8 E 0.0 0.1
01:05 17.9 90.3 1013.3 0.0 NNE 0.0 NE 0.0 0.1
01:10 17.9 90.6 1013.3 2.4 N 4.6 N 0.0 0.1
01:15 17.8 90.8 1013.2 2.4 N 7.4 N 0.0 0.1
01:20 17.8 90.3 1013.1 1.5 NNW 4.2 NNW 0.0 0.1
01:25 17.7 89.6 1013.1 0.6 S 2.5 S 0.0 0.1
01:30 17.6 89.6 1013.1 2.7 SSE 4.2 SSE 0.0 0.1
01:35 17.5 89.8 1013.0 3.1 S 4.6 SSW 0.0 0.1
01:40 17.4 90.4 1013.0 0.8 SSW 3.5 SW 0.0 0.1
01:45 17.4 90.9 1012.8 0.1 NNW 2.1 NW 0.0 0.1
01:50 17.3 91.0 1012.8 1.4 NNW 4.6 N 0.0 0.1
01:55 17.1 91.0 1012.8 1.0 WNW 3.2 N 0.0 0.1
02:00 16.9 91.3 1012.8 2.9 W 4.2 W 0.0 0.1
02:05 17.0 92.4 1012.7 2.3 W 3.9 S 0.0 0.1
02:10 17.0 92.0 1012.7 2.7 S 4.6 SW 0.0 0.1
02:15 16.9 91.6 1012.7 3.3 W 6.0 W 0.0 0.1
02:20 16.8 91.8 1012.7 4.7 WNW 7.1 WNW 0.0 0.1
02:25 16.7 92.9 1012.6 3.9 NW 6.0 NW 0.0 0.1
02:30 16.9 93.3 1012.5 2.6 WNW 4.2 NW 0.0 0.1
02:35 17.0 93.4 1012.5 2.5 NW 3.5 NW 0.0 0.1
02:40 17.0 93.4 1012.4 2.3 NNW 3.9 NNW 0.0 0.1
02:45 17.1 93.5 1012.3 0.0 NW 1.4 NW 0.0 0.1
02:50 17.1 93.6 1012.3 1.5 NNW 3.2 NNW 0.0 0.1
02:55 17.2 93.6 1012.2 1.1 NW 3.2 NNW 0.0 0.1
03:00 17.2 93.8 1012.2 0.3 SSE 2.1 SSE 0.0 0.1
Màxima 18.4 93.9 1013.7 7.1 NNW 12.0 NNW 0.0 0.1
Mínima 16.5 89.2 1012.2
Total 0.0